Aérodrome :
LOGIN :

S'inscrire | Disclaimer

   EN    FR    IT 

 










Légende :    VFR   VFR Marginal   IFR   IFR Intensif   IFR Très Intensif
Visi : 
Plafond : 
>= 8 km
>= 3000ft
5 à 8 km
1000 à 3000 ft
1500m à 5 km
500 à 1000 ft
800 à 1500m
200 à 500 ft
< 800m
< 200 ft
Symboles :   Orages  Brouillard  Fortes neiges  Fortes précipitations  Vent > 20 kt
SIGMETs :   Divers  Orages  Givrage  Turbulence  Onde Orograph.  Cendres Volcan.






- Altitude de l'aérodrome : 84 ft


LFBC - Cazaux

DERNIER METAR :
  • 190100Z AUTO 26004KT 230V290 9999 FEW023/// SCT080/// BKN110/// ///CB 15/14 Q1017

METARs EXPIRÉS :
  • 190030Z AUTO 25004KT 9999 SCT022/// SCT029/// BKN086/// ///CB 15/13 Q1017
  • 190000Z AUTO 27004KT CAVOK 15/13 Q1017
  • 182330Z AUTO 26004KT 230V290 9999 SCT024/// BKN030/// BKN039/// ///CB 15/14 Q1017
  • 182300Z AUTO 21007KT 9999 4400 SCT028/// BKN035/// BKN047/// ///CB 15/14 Q1017
  • 182230Z AUTO 23006KT 200V270 9999 FEW011/// SCT033/// BKN050/// ///CB 15/14 Q1017

TAF AMD TAF LFBC
Valide du 18 à 15h jusqu'au 19 à 15h UTC


181610Z 1815/1915 27006KT 9999 SCT040 BKN080
TEMPO 1816/1822 27015G25KT 2000 TSRA BKN030CB
TEMPO 1822/1915 3000 SHRA BKN030TCU



MET'MAP, la Météo Aéronautique d'un coup d'oeil ! - Copyright ORBIFLY Décembre 2007 - Disclaimer

ORBIFLY MET'MAP TEAM :

Programmation & Développement : Alexandra Zaïnal
Sur une idée originale de : Baudouin d'Aumeries
Assistance à la programmation : Marc-Olivier Méhu
Soutien technique & logistique : Manuel Goepfert

Contact : metmap@orbifly.com




SOURCES & CREDITS :

   NOAA